East Hanover, Pennsylvania
Current Conditions -  °F | °C
As of 9:32 AM on Wednesday 22 Oct 2014 (Local Time) from KMUI Reporting Station
Light Rain Light Rain  
Wind Chill: 54°   Ceiling: 4400
Heat Index: 54°   Visibility: 9mi
Dew Point: 54°   Wind: 10mph
Humidity: 100%   Direction: 360°N
Pressure: 29.97"   Gusts: 18mph
Location:  40.3819°N, 76.5718°W
Report Text: KMUI 221332Z AUTO 36009G16KT 9SM -RA FEW022 SCT028 SCT034 BKN044 OVC065 12/12 A2997 RMK AO2 RAB1310 $
Loading
Personal Weather Stations






























Interactive Weather Map
Tropical Storm Tracking
New forecast layout! Learn more

10-Day Weather Forecast

Advertisements
Track Severe Weather on mobile